Time;durP1;ratioP1;P1;durP2;ratioP2;P2;SDS_P1;SDS_P2;PMS_P1;PMS_P2;Temp;Humidity;BMP_temperature;BMP_pressure;BME280_temperature;BME280_humidity;BME280_pressure;Samples;Min_cycle;Max_cycle;Signal;HPM_P1;HPM_P2
2022/08/29 00:01:00;;;;;;;7.90;7.30;;;18.10;99.90;;;;;;5048084;28;20193;-59
2022/08/29 00:03:26;;;;;;;8.48;7.57;;;18.10;99.90;;;;;;5056049;28;20197;-60
2022/08/29 00:05:52;;;;;;;9.20;7.60;;;18.10;99.90;;;;;;5048090;28;20718;-60
2022/08/29 00:08:18;;;;;;;8.47;7.73;;;18.10;99.90;;;;;;5035395;28;20248;-59
2022/08/29 00:10:44;;;;;;;9.20;7.95;;;18.10;99.90;;;;;;5050481;28;20293;-60
2022/08/29 00:13:11;;;;;;;9.20;8.20;;;18.00;99.90;;;;;;5048929;28;20265;-60
2022/08/29 00:15:38;;;;;;;11.32;7.25;;;18.00;99.90;;;;;;5052816;28;20439;-59
2022/08/29 00:18:04;;;;;;;8.32;7.65;;;18.10;99.90;;;;;;5028028;28;20194;-59
2022/08/29 00:20:31;;;;;;;8.83;7.07;;;18.10;99.90;;;;;;5048444;28;20258;-60
2022/08/29 00:22:58;;;;;;;7.68;6.97;;;18.00;99.90;;;;;;5051275;28;20206;-59
2022/08/29 00:25:24;;;;;;;9.07;7.57;;;18.30;99.90;;;;;;5053063;28;20192;-60
2022/08/29 00:27:50;;;;;;;7.70;7.10;;;18.00;99.90;;;;;;5046199;28;20213;-59
2022/08/29 00:30:19;;;;;;;8.48;7.68;;;18.00;99.90;;;;;;5052959;28;20201;-60
2022/08/29 00:32:45;;;;;;;8.13;7.32;;;17.90;99.90;;;;;;5050017;28;20184;-60
2022/08/29 00:35:14;;;;;;;7.50;6.90;;;17.90;99.90;;;;;;5048449;28;20846;-59
2022/08/29 00:37:41;;;;;;;8.38;7.38;;;18.00;99.90;;;;;;5041246;28;20184;-60
2022/08/29 00:40:11;;;;;;;7.88;7.20;;;18.00;99.90;;;;;;5049212;28;20752;-60
2022/08/29 00:42:37;;;;;;;8.55;7.07;;;17.80;99.90;;;;;;5048889;28;20190;-59
2022/08/29 00:45:06;;;;;;;8.40;6.90;;;17.80;99.90;;;;;;5052852;28;20191;-60
2022/08/29 00:47:35;;;;;;;8.40;7.60;;;17.80;99.90;;;;;;5051270;28;20209;-60
2022/08/29 00:50:06;;;;;;;8.30;7.15;;;17.70;99.90;;;;;;5042952;28;20200;-60
2022/08/29 00:52:38;;;;;;;7.45;6.85;;;17.60;99.90;;;;;;5052606;28;20270;-60
2022/08/29 00:55:10;;;;;;;7.50;6.80;;;17.80;99.90;;;;;;5048131;28;20239;-60
2022/08/29 00:57:38;;;;;;;8.48;7.18;;;17.70;99.90;;;;;;5028981;28;20539;-61
2022/08/29 01:00:06;;;;;;;7.55;6.85;;;17.50;99.90;;;;;;5043207;28;20541;-60
2022/08/29 01:02:32;;;;;;;7.90;7.20;;;17.60;99.90;;;;;;5047937;28;20194;-60
2022/08/29 01:04:59;;;;;;;7.23;6.63;;;17.70;99.90;;;;;;5052645;28;20185;-60
2022/08/29 01:07:24;;;;;;;7.07;6.38;;;17.60;99.90;;;;;;5050719;28;20228;-60
2022/08/29 01:09:51;;;;;;;7.70;7.00;;;17.50;99.90;;;;;;5051899;28;20232;-60
2022/08/29 01:12:18;;;;;;;7.43;6.82;;;17.50;99.90;;;;;;5053547;28;20431;-60
2022/08/29 01:14:57;;;;;;;8.00;7.03;;;17.50;99.90;;;;;;5052348;28;20181;-61
2022/08/29 01:17:32;;;;;;;8.45;7.30;;;17.50;99.90;;;;;;5038655;28;20216;-60
2022/08/29 01:20:21;;;;;;;8.50;7.65;;;17.30;99.90;;;;;;5045034;28;20201;-60
2022/08/29 01:23:06;;;;;;;7.70;6.70;;;17.30;99.90;;;;;;5048403;28;20193;-60
2022/08/29 01:25:39;;;;;;;7.13;6.53;;;17.50;99.90;;;;;;5045657;28;20713;-60
2022/08/29 01:28:13;;;;;;;7.35;6.65;;;17.40;99.90;;;;;;5053649;28;20213;-60
2022/08/29 01:31:00;;;;;;;9.90;6.40;;;17.40;99.90;;;;;;5034007;28;20269;-60
2022/08/29 01:33:33;;;;;;;7.55;6.95;;;17.20;99.90;;;;;;5041422;28;20186;-60
2022/08/29 01:35:58;;;;;;;8.23;6.85;;;17.40;99.90;;;;;;5048441;28;20178;-60
2022/08/29 01:38:27;;;;;;;9.50;7.20;;;17.50;99.90;;;;;;5046055;28;20217;-61
2022/08/29 01:40:56;;;;;;;6.82;6.20;;;17.40;99.90;;;;;;5042202;28;20538;-60
2022/08/29 01:43:22;;;;;;;8.95;7.47;;;17.40;99.90;;;;;;5046437;28;20185;-60
2022/08/29 01:45:49;;;;;;;7.60;6.77;;;17.20;99.90;;;;;;5049343;28;20201;-58
2022/08/29 01:48:15;;;;;;;12.73;7.10;;;17.40;99.90;;;;;;5042054;28;20889;-58
2022/08/29 01:50:41;;;;;;;8.15;7.35;;;17.20;99.90;;;;;;5051479;28;20304;-60
2022/08/29 01:53:06;;;;;;;8.07;7.33;;;17.10;99.90;;;;;;5046237;28;20628;-60
2022/08/29 01:55:32;;;;;;;7.67;6.97;;;17.10;99.90;;;;;;5047408;28;20432;-58
2022/08/29 01:57:58;;;;;;;7.50;6.70;;;17.10;99.90;;;;;;5049293;28;20562;-59
2022/08/29 02:00:23;;;;;;;7.57;6.87;;;17.00;99.90;;;;;;5048104;28;20209;-60
2022/08/29 02:02:49;;;;;;;7.70;7.00;;;17.00;99.90;;;;;;5044527;28;20204;-59
2022/08/29 02:05:14;;;;;;;7.27;6.60;;;16.80;99.90;;;;;;5056013;28;20193;-60
2022/08/29 02:07:40;;;;;;;7.50;6.80;;;16.80;99.90;;;;;;5044456;28;20210;-60
2022/08/29 02:10:06;;;;;;;7.93;7.00;;;17.00;99.90;;;;;;5050823;28;20205;-59
2022/08/29 02:12:32;;;;;;;8.02;7.32;;;17.20;99.90;;;;;;5048419;28;20173;-59
2022/08/29 02:14:58;;;;;;;7.50;6.13;;;16.90;99.90;;;;;;5050265;28;20524;-59
2022/08/29 02:17:24;;;;;;;7.75;7.05;;;16.80;99.90;;;;;;5048334;28;20442;-59
2022/08/29 02:19:50;;;;;;;9.50;6.40;;;16.90;99.90;;;;;;5055483;28;20201;-59
2022/08/29 02:22:16;;;;;;;7.40;6.75;;;16.70;99.90;;;;;;5038000;28;20566;-60
2022/08/29 02:24:41;;;;;;;7.73;7.03;;;16.80;99.90;;;;;;5030182;28;20239;-59
2022/08/29 02:27:09;;;;;;;6.97;6.37;;;16.80;99.90;;;;;;5027663;28;20173;-60
2022/08/29 02:29:36;;;;;;;7.63;6.85;;;16.70;99.90;;;;;;5050297;28;20698;-59
2022/08/29 02:32:02;;;;;;;7.28;6.68;;;16.70;99.90;;;;;;5044477;28;20201;-60
2022/08/29 02:34:29;;;;;;;6.97;6.30;;;17.00;99.90;;;;;;5022974;28;20218;-59
2022/08/29 02:36:57;;;;;;;7.03;6.32;;;16.80;99.90;;;;;;5050384;28;20186;-59
2022/08/29 02:39:23;;;;;;;7.03;6.43;;;17.00;99.90;;;;;;5044374;28;20393;-59
2022/08/29 02:41:49;;;;;;;7.70;6.90;;;16.80;99.90;;;;;;5048844;28;20261;-59
2022/08/29 02:44:14;;;;;;;8.00;7.30;;;16.90;99.90;;;;;;5044667;28;20444;-59
2022/08/29 02:46:40;;;;;;;7.03;6.30;;;16.90;99.90;;;;;;5048126;28;20196;-59
2022/08/29 02:49:06;;;;;;;7.87;7.17;;;16.70;99.90;;;;;;5046604;28;20742;-59
2022/08/29 02:51:32;;;;;;;7.73;6.60;;;16.90;99.90;;;;;;5026553;28;20561;-59
2022/08/29 02:53:59;;;;;;;8.80;6.60;;;16.60;99.90;;;;;;5041796;28;20254;-60
2022/08/29 02:56:25;;;;;;;7.30;6.70;;;16.60;99.90;;;;;;5045431;28;20672;-59
2022/08/29 02:58:51;;;;;;;7.05;6.45;;;16.60;99.90;;;;;;5044647;28;20197;-59
2022/08/29 03:01:19;;;;;;;6.73;6.13;;;16.60;99.90;;;;;;5043124;28;20184;-59
2022/08/29 03:03:44;;;;;;;7.75;6.75;;;16.80;99.90;;;;;;5047606;28;20216;-59
2022/08/29 03:06:11;;;;;;;6.90;6.30;;;16.50;99.90;;;;;;5046337;28;20571;-61
2022/08/29 03:08:37;;;;;;;7.55;6.85;;;16.60;99.90;;;;;;5043248;28;20214;-58
2022/08/29 03:11:04;;;;;;;7.47;6.73;;;16.60;99.90;;;;;;5039042;28;20299;-58
2022/08/29 03:13:30;;;;;;;7.10;6.43;;;16.70;99.90;;;;;;5049856;28;20507;-58
2022/08/29 03:15:56;;;;;;;7.47;6.85;;;16.60;99.90;;;;;;5045639;28;20185;-58
2022/08/29 03:18:22;;;;;;;8.00;6.82;;;16.40;99.90;;;;;;5047474;28;20666;-58
2022/08/29 03:20:48;;;;;;;8.23;6.93;;;16.50;99.90;;;;;;5044249;28;20213;-58
2022/08/29 03:23:14;;;;;;;8.30;7.17;;;16.50;99.90;;;;;;5038318;28;20198;-58
2022/08/29 03:25:39;;;;;;;7.25;6.55;;;16.30;99.90;;;;;;5032264;28;20730;-59
2022/08/29 03:28:05;;;;;;;7.13;6.43;;;16.30;99.90;;;;;;5046966;28;20285;-60
2022/08/29 03:30:32;;;;;;;7.13;6.43;;;16.30;99.90;;;;;;5021787;28;20297;-59
2022/08/29 03:32:58;;;;;;;7.88;6.90;;;16.40;99.90;;;;;;5045157;28;20186;-60
2022/08/29 03:35:24;;;;;;;6.43;5.83;;;16.30;99.90;;;;;;5049640;28;20204;-59
2022/08/29 03:37:52;;;;;;;7.50;6.80;;;16.50;99.90;;;;;;5047520;28;20546;-60
2022/08/29 03:40:18;;;;;;;8.05;6.70;;;16.20;99.90;;;;;;5044248;28;20976;-59
2022/08/29 03:42:44;;;;;;;8.03;7.33;;;16.30;99.90;;;;;;5031938;28;20224;-59
2022/08/29 03:45:12;;;;;;;8.57;7.77;;;16.60;99.90;;;;;;5047259;28;20190;-59
2022/08/29 03:47:39;;;;;;;7.68;6.97;;;16.20;99.90;;;;;;5048038;28;20924;-60
2022/08/29 03:50:05;;;;;;;7.32;6.63;;;15.90;99.90;;;;;;5050392;28;20535;-59
2022/08/29 03:52:31;;;;;;;7.90;7.20;;;16.20;99.90;;;;;;5051436;28;20229;-60
2022/08/29 03:54:56;;;;;;;9.53;7.77;;;16.10;99.90;;;;;;5041304;28;20799;-59
2022/08/29 03:57:22;;;;;;;7.60;6.90;;;16.20;99.90;;;;;;5047874;28;20662;-59
2022/08/29 03:59:48;;;;;;;8.70;6.80;;;16.20;99.90;;;;;;5030527;28;20244;-59
2022/08/29 04:02:14;;;;;;;7.00;6.40;;;16.30;99.90;;;;;;5047214;28;20444;-59
2022/08/29 04:07:24;;;;;;;9.38;7.15;;;16.00;99.90;;;;;;5050910;28;20204;-58
2022/08/29 04:09:50;;;;;;;8.00;7.03;;;16.20;99.90;;;;;;5037280;28;20320;-58
2022/08/29 04:12:16;;;;;;;7.60;6.90;;;16.10;99.90;;;;;;5052601;28;20190;-58
2022/08/29 04:14:41;;;;;;;7.20;6.50;;;16.20;99.90;;;;;;5047647;28;20267;-58
2022/08/29 04:17:09;;;;;;;7.60;6.70;;;16.10;99.90;;;;;;5051104;28;20681;-58
2022/08/29 04:19:35;;;;;;;7.60;6.90;;;16.20;99.90;;;;;;5049463;28;20212;-58
2022/08/29 04:22:03;;;;;;;7.85;7.15;;;16.00;99.90;;;;;;5050082;28;20231;-58
2022/08/29 04:24:32;;;;;;;7.80;7.05;;;16.10;99.90;;;;;;5047082;28;20193;-59
2022/08/29 04:26:58;;;;;;;8.93;6.88;;;16.00;99.90;;;;;;5052361;28;20584;-58
2022/08/29 04:29:24;;;;;;;7.77;7.07;;;16.00;99.90;;;;;;5042812;28;20247;-59
2022/08/29 04:31:50;;;;;;;8.52;7.72;;;16.00;99.90;;;;;;5044450;28;20188;-58
2022/08/29 04:34:16;;;;;;;8.03;7.07;;;16.00;99.90;;;;;;5032488;28;20556;-59
2022/08/29 04:36:44;;;;;;;7.40;6.78;;;15.90;99.90;;;;;;5047478;28;20428;-59
2022/08/29 04:39:11;;;;;;;7.85;7.15;;;16.00;99.90;;;;;;5051073;28;20201;-59
2022/08/29 04:41:37;;;;;;;8.05;7.32;;;15.90;99.90;;;;;;5051741;28;20282;-59
2022/08/29 04:44:04;;;;;;;8.77;7.97;;;16.00;99.90;;;;;;5052333;28;20197;-59
2022/08/29 04:46:30;;;;;;;9.00;7.57;;;16.20;99.90;;;;;;5043736;28;20201;-59
2022/08/29 04:48:56;;;;;;;7.90;7.22;;;15.90;99.90;;;;;;5050163;28;20229;-58
2022/08/29 04:51:22;;;;;;;8.18;7.47;;;15.80;99.90;;;;;;5034156;28;20173;-59
2022/08/29 04:53:50;;;;;;;8.50;7.63;;;16.10;99.90;;;;;;5039418;28;20186;-59
2022/08/29 04:56:15;;;;;;;8.38;7.68;;;15.90;99.90;;;;;;5033804;28;20291;-58
2022/08/29 04:58:42;;;;;;;10.83;8.03;;;16.00;99.90;;;;;;5050103;28;20197;-58
2022/08/29 05:01:12;;;;;;;7.88;7.07;;;15.90;99.90;;;;;;5032855;28;20236;-59
2022/08/29 05:03:38;;;;;;;8.35;7.65;;;15.80;99.90;;;;;;5046206;28;20550;-59
2022/08/29 05:06:07;;;;;;;7.70;6.97;;;15.70;99.90;;;;;;5041880;28;20264;-59
2022/08/29 05:08:34;;;;;;;8.18;7.35;;;15.90;99.90;;;;;;5032056;28;20264;-59
2022/08/29 05:11:00;;;;;;;7.30;6.60;;;16.00;99.90;;;;;;5051130;28;20193;-58
2022/08/29 05:13:26;;;;;;;8.67;7.87;;;15.90;99.90;;;;;;5042752;28;20243;-59
2022/08/29 05:15:52;;;;;;;7.97;7.18;;;16.10;99.90;;;;;;5032087;28;20540;-59
2022/08/29 05:18:17;;;;;;;8.90;8.10;;;15.90;99.90;;;;;;5051368;28;20182;-58
2022/08/29 05:20:46;;;;;;;8.47;7.67;;;15.90;99.90;;;;;;5050665;28;20208;-59
2022/08/29 05:23:12;;;;;;;8.25;7.45;;;16.00;99.90;;;;;;5043673;28;20198;-58
2022/08/29 05:25:38;;;;;;;8.53;7.70;;;16.00;99.90;;;;;;5049950;28;20618;-59
2022/08/29 05:28:04;;;;;;;10.23;8.13;;;16.10;99.90;;;;;;5029611;28;20935;-59
2022/08/29 05:30:30;;;;;;;8.73;7.93;;;16.00;99.90;;;;;;5046161;28;20288;-59
2022/08/29 05:32:57;;;;;;;8.90;8.00;;;16.20;99.90;;;;;;5038230;28;20198;-58
2022/08/29 05:35:22;;;;;;;8.90;7.45;;;16.00;99.90;;;;;;5044113;28;20188;-59
2022/08/29 05:37:48;;;;;;;8.63;7.50;;;16.40;99.90;;;;;;5046431;28;20196;-59
2022/08/29 05:40:14;;;;;;;9.60;8.37;;;16.30;99.90;;;;;;5050390;28;20507;-63
2022/08/29 05:42:40;;;;;;;9.17;8.27;;;16.40;99.90;;;;;;5048982;28;20481;-58
2022/08/29 05:45:07;;;;;;;8.07;7.38;;;16.40;99.90;;;;;;5050600;28;20180;-59
2022/08/29 05:47:32;;;;;;;9.88;8.90;;;16.50;99.90;;;;;;5049868;28;20198;-59
2022/08/29 05:49:58;;;;;;;12.40;8.40;;;16.30;99.90;;;;;;5039713;28;20592;-59
2022/08/29 05:52:24;;;;;;;9.07;8.18;;;16.50;99.90;;;;;;5050270;28;20181;-59
2022/08/29 05:54:50;;;;;;;11.45;8.45;;;16.90;99.90;;;;;;5043598;28;20243;-59
2022/08/29 05:57:19;;;;;;;9.57;7.70;;;16.60;99.90;;;;;;5049597;28;20189;-59
2022/08/29 05:59:47;;;;;;;8.20;7.40;;;17.00;99.90;;;;;;5047123;28;20209;-59
2022/08/29 06:02:12;;;;;;;9.40;8.50;;;16.80;99.90;;;;;;5047717;28;20278;-58
2022/08/29 06:04:38;;;;;;;10.30;8.10;;;16.90;99.90;;;;;;5046836;28;20501;-60
2022/08/29 06:07:05;;;;;;;7.43;6.73;;;17.00;99.90;;;;;;5049783;28;20185;-60
2022/08/29 06:09:31;;;;;;;9.75;7.35;;;17.20;99.90;;;;;;5037407;28;21061;-60
2022/08/29 06:11:57;;;;;;;8.47;7.33;;;17.20;99.90;;;;;;5048708;28;20190;-60
2022/08/29 06:14:23;;;;;;;10.20;8.48;;;17.30;99.90;;;;;;5050283;28;20189;-61
2022/08/29 06:16:49;;;;;;;8.40;7.60;;;17.30;99.90;;;;;;5051653;28;20191;-60
2022/08/29 06:19:14;;;;;;;10.77;8.13;;;17.50;99.90;;;;;;5043005;28;20292;-60
2022/08/29 06:21:40;;;;;;;10.63;8.40;;;17.50;99.90;;;;;;5050407;28;20427;-60
2022/08/29 06:24:06;;;;;;;10.00;8.90;;;17.60;99.90;;;;;;5045355;28;20292;-60
2022/08/29 06:26:32;;;;;;;8.97;8.07;;;17.80;99.90;;;;;;5049101;28;20481;-61
2022/08/29 06:28:58;;;;;;;9.47;8.57;;;17.90;99.90;;;;;;5045505;28;20255;-60
2022/08/29 06:31:27;;;;;;;9.30;8.23;;;18.10;99.90;;;;;;5050111;28;20467;-61
2022/08/29 06:33:56;;;;;;;8.25;7.45;;;18.20;99.90;;;;;;5040805;28;20639;-58
2022/08/29 06:36:24;;;;;;;9.20;7.70;;;18.30;99.90;;;;;;5044824;28;20224;-58
2022/08/29 06:38:51;;;;;;;10.20;7.60;;;18.60;99.90;;;;;;5049191;28;20193;-59
2022/08/29 06:41:18;;;;;;;8.50;7.70;;;18.70;99.90;;;;;;5047446;28;20193;-59
2022/08/29 06:43:43;;;;;;;8.90;8.20;;;18.90;99.90;;;;;;5044244;28;20189;-58
2022/08/29 06:46:21;;;;;;;7.80;7.10;;;19.00;99.90;;;;;;5046275;28;20550;-59
2022/08/29 06:48:47;;;;;;;9.00;8.10;;;19.30;99.90;;;;;;5049531;28;20215;-59
2022/08/29 06:51:12;;;;;;;9.20;8.30;;;19.40;99.90;;;;;;5031812;28;20186;-58
2022/08/29 06:53:38;;;;;;;11.07;8.90;;;19.60;99.90;;;;;;5045614;28;20884;-59
2022/08/29 06:56:05;;;;;;;9.50;8.57;;;19.80;99.90;;;;;;5049855;28;20173;-59
2022/08/29 06:58:32;;;;;;;10.00;8.95;;;19.80;99.90;;;;;;5053643;28;20183;-59
2022/08/29 07:00:57;;;;;;;12.25;8.80;;;19.90;99.90;;;;;;5043050;28;20248;-59
2022/08/29 07:03:23;;;;;;;9.70;8.87;;;20.00;99.90;;;;;;5046935;28;20217;-59
2022/08/29 07:05:52;;;;;;;8.97;8.17;;;20.30;99.90;;;;;;5048611;28;20190;-59
2022/08/29 07:08:18;;;;;;;8.52;7.82;;;21.40;99.90;;;;;;5043656;28;20679;-59
2022/08/29 07:10:44;;;;;;;9.93;8.90;;;23.40;99.90;;;;;;5031847;28;20206;-59
2022/08/29 07:13:10;;;;;;;9.13;8.10;;;25.40;95.40;;;;;;5049038;28;20435;-59
2022/08/29 07:15:36;;;;;;;9.03;8.20;;;26.00;92.30;;;;;;5050774;28;20492;-59
2022/08/29 07:18:01;;;;;;;8.30;7.60;;;27.60;88.20;;;;;;5051732;28;20182;-59
2022/08/29 07:20:27;;;;;;;8.93;8.10;;;27.70;86.20;;;;;;5049284;28;20219;-58
2022/08/29 07:22:54;;;;;;;9.03;8.23;;;29.70;77.60;;;;;;5045996;28;20611;-59
2022/08/29 07:25:20;;;;;;;11.00;7.53;;;30.90;76.00;;;;;;5039766;28;20569;-59
2022/08/29 07:27:47;;;;;;;8.10;7.40;;;32.90;68.60;;;;;;5049620;28;20439;-59
2022/08/29 07:30:15;;;;;;;8.63;7.93;;;32.30;66.50;;;;;;5047428;28;20456;-59
2022/08/29 07:32:43;;;;;;;8.23;7.63;;;33.90;61.50;;;;;;5046781;28;20533;-59
2022/08/29 07:35:10;;;;;;;8.53;7.83;;;35.30;58.60;;;;;;5045374;28;20439;-58
2022/08/29 07:37:36;;;;;;;13.30;8.53;;;35.30;56.30;;;;;;5041588;28;20436;-59
2022/08/29 07:40:02;;;;;;;9.60;8.80;;;35.80;54.90;;;;;;5034051;28;20451;-59
2022/08/29 07:42:27;;;;;;;9.53;8.63;;;35.70;54.00;;;;;;5046413;28;20193;-59
2022/08/29 07:44:53;;;;;;;9.13;8.40;;;35.60;51.70;;;;;;5044968;28;20593;-59
2022/08/29 07:47:19;;;;;;;8.87;8.03;;;36.10;53.40;;;;;;5048066;28;20666;-59
2022/08/29 07:49:45;;;;;;;11.77;8.00;;;37.40;50.20;;;;;;5043365;28;20221;-59
2022/08/29 07:52:10;;;;;;;9.50;8.67;;;37.90;48.30;;;;;;5049477;28;20439;-60
2022/08/29 07:54:37;;;;;;;8.90;8.10;;;37.70;48.60;;;;;;5040732;28;20186;-60
2022/08/29 07:57:02;;;;;;;9.40;8.63;;;37.70;47.00;;;;;;5050047;28;20248;-59
2022/08/29 07:59:30;;;;;;;9.83;9.00;;;35.10;51.20;;;;;;5049408;28;20474;-59
2022/08/29 08:01:55;;;;;;;9.40;8.60;;;35.90;50.40;;;;;;5052786;28;20189;-59
2022/08/29 08:04:21;;;;;;;10.60;9.57;;;36.50;49.90;;;;;;5047389;28;20517;-59
2022/08/29 08:06:46;;;;;;;14.60;13.20;;;37.10;47.80;;;;;;5052537;28;20247;-59
2022/08/29 08:09:14;;;;;;;8.80;8.00;;;36.20;48.00;;;;;;5045283;28;20217;-59
2022/08/29 08:11:40;;;;;;;10.70;9.20;;;35.60;49.90;;;;;;5048888;28;20173;-59
2022/08/29 08:14:06;;;;;;;8.60;7.90;;;34.70;50.40;;;;;;5052131;28;20439;-59
2022/08/29 08:16:32;;;;;;;8.40;7.70;;;35.10;51.50;;;;;;5050306;28;20439;-59
2022/08/29 08:18:58;;;;;;;8.77;7.97;;;36.40;50.10;;;;;;5044505;28;20513;-59
2022/08/29 08:21:24;;;;;;;9.10;8.30;;;36.70;48.60;;;;;;5056343;28;20201;-59
2022/08/29 08:23:51;;;;;;;9.73;8.77;;;37.30;47.90;;;;;;5050753;28;20174;-60
2022/08/29 08:26:17;;;;;;;10.53;9.63;;;37.80;46.50;;;;;;5057500;28;20443;-59
2022/08/29 08:28:43;;;;;;;8.53;7.83;;;38.20;46.50;;;;;;5028010;28;20457;-60
2022/08/29 08:31:11;;;;;;;10.27;9.37;;;39.40;44.80;;;;;;5048458;28;20554;-59
2022/08/29 08:33:38;;;;;;;9.13;8.33;;;38.80;43.00;;;;;;5046196;28;20686;-59
2022/08/29 08:36:14;;;;;;;12.30;9.20;;;37.50;46.20;;;;;;5039280;28;20435;-59
2022/08/29 08:38:39;;;;;;;9.53;8.67;;;38.60;45.00;;;;;;5050772;28;20581;-59
2022/08/29 08:41:15;;;;;;;9.63;8.60;;;38.70;44.10;;;;;;5051436;28;20550;-60
2022/08/29 08:44:00;;;;;;;10.43;9.53;;;38.90;44.50;;;;;;5044436;28;20240;-60
2022/08/29 08:46:49;;;;;;;8.60;7.80;;;40.00;42.80;;;;;;5044516;28;20424;-59
2022/08/29 08:49:26;;;;;;;9.73;8.73;;;40.10;42.30;;;;;;5039998;28;20503;-60
2022/08/29 08:51:58;;;;;;;9.23;8.40;;;40.30;42.10;;;;;;5046147;28;20421;-60
2022/08/29 08:54:27;;;;;;;10.47;9.53;;;39.90;41.60;;;;;;5045495;28;20448;-59
2022/08/29 08:56:59;;;;;;;9.63;8.50;;;38.50;41.90;;;;;;5051258;28;20446;-60
2022/08/29 08:59:38;;;;;;;9.03;8.23;;;37.50;44.40;;;;;;5046400;28;20468;-59
2022/08/29 09:02:33;;;;;;;9.47;8.67;;;38.40;43.40;;;;;;5037471;28;20550;-59
2022/08/29 09:05:11;;;;;;;10.30;9.30;;;38.00;44.10;;;;;;5043776;28;20499;-59
2022/08/29 09:07:42;;;;;;;9.23;8.07;;;36.50;44.40;;;;;;5029519;28;20453;-60
2022/08/29 09:10:30;;;;;;;9.00;8.30;;;37.20;45.00;;;;;;5046844;28;20448;-61
2022/08/29 09:12:59;;;;;;;8.60;7.83;;;35.80;46.50;;;;;;5049012;28;20518;-60
2022/08/29 09:15:37;;;;;;;9.20;8.50;;;35.90;46.60;;;;;;5055469;28;20531;-58
2022/08/29 09:18:15;;;;;;;8.40;7.70;;;35.50;47.60;;;;;;5046294;28;20447;-60
2022/08/29 09:20:41;;;;;;;9.17;8.37;;;34.50;48.30;;;;;;5050702;28;20459;-59
2022/08/29 09:23:20;;;;;;;8.50;7.70;;;32.70;52.30;;;;;;5052056;28;20490;-59
2022/08/29 09:25:47;;;;;;;7.97;7.20;;;31.50;54.40;;;;;;5052968;28;20269;-59
2022/08/29 09:28:13;;;;;;;9.13;8.23;;;30.70;56.40;;;;;;5050692;28;20463;-59
2022/08/29 09:31:03;;;;;;;8.70;7.83;;;30.20;58.30;;;;;;5049305;28;20458;-59
2022/08/29 09:33:43;;;;;;;8.27;7.57;;;29.50;59.60;;;;;;5047422;28;20441;-59
2022/08/29 09:36:12;;;;;;;8.13;7.43;;;28.90;61.20;;;;;;5047733;28;20456;-59
2022/08/29 09:38:37;;;;;;;8.30;7.50;;;28.40;64.10;;;;;;5047033;28;20522;-59
2022/08/29 09:41:09;;;;;;;9.00;8.20;;;28.20;65.50;;;;;;5046424;28;20610;-59
2022/08/29 09:43:38;;;;;;;8.50;7.70;;;28.00;66.80;;;;;;5028304;28;20193;-59
2022/08/29 09:46:09;;;;;;;8.00;7.30;;;27.50;68.10;;;;;;5032116;28;20801;-59
2022/08/29 09:48:38;;;;;;;8.80;8.00;;;27.30;70.40;;;;;;5047867;28;20471;-59
2022/08/29 09:51:12;;;;;;;8.20;7.50;;;27.10;69.50;;;;;;5047772;28;20452;-59
2022/08/29 09:53:37;;;;;;;8.07;7.37;;;27.00;71.70;;;;;;5046076;28;20440;-58
2022/08/29 09:56:06;;;;;;;7.20;6.57;;;27.10;71.90;;;;;;5052926;28;20781;-58
2022/08/29 09:58:35;;;;;;;7.63;6.83;;;27.00;71.80;;;;;;5054701;28;20189;-59
2022/08/29 10:01:19;;;;;;;8.40;6.60;;;27.00;71.00;;;;;;5040595;28;20936;-58
2022/08/29 10:03:58;;;;;;;7.83;7.03;;;26.90;72.80;;;;;;5045199;28;20472;-59
2022/08/29 10:06:31;;;;;;;8.40;7.53;;;26.90;72.50;;;;;;5046545;28;20957;-57
2022/08/29 10:09:22;;;;;;;6.87;6.17;;;26.60;73.10;;;;;;5043858;28;21002;-59
2022/08/29 10:11:59;;;;;;;8.50;6.83;;;26.80;73.50;;;;;;5051369;28;20440;-59
2022/08/29 10:14:46;;;;;;;6.40;5.83;;;26.90;72.30;;;;;;5049104;28;20572;-59
2022/08/29 10:19:59;;;;;;;9.03;7.53;;;27.00;71.90;;;;;;5048458;28;20466;-60
2022/08/29 10:22:31;;;;;;;6.33;5.83;;;27.10;71.90;;;;;;5049680;28;20447;-60
2022/08/29 10:25:10;;;;;;;6.47;5.87;;;27.10;71.30;;;;;;5037820;28;20197;-59
2022/08/29 10:27:39;;;;;;;5.70;5.20;;;27.10;70.90;;;;;;5047058;28;20427;-59
2022/08/29 10:30:09;;;;;;;6.00;5.47;;;27.10;69.60;;;;;;5049520;28;20454;-58
2022/08/29 10:32:47;;;;;;;7.20;5.57;;;27.20;70.00;;;;;;5048205;28;20524;-59
2022/08/29 10:35:22;;;;;;;8.07;6.47;;;27.30;69.80;;;;;;5044023;28;20527;-59
2022/08/29 10:37:58;;;;;;;6.87;6.07;;;27.30;70.90;;;;;;5050082;28;20458;-59
2022/08/29 10:40:26;;;;;;;6.33;5.80;;;27.40;70.80;;;;;;5045009;28;20542;-60
2022/08/29 10:43:03;;;;;;;6.67;5.70;;;27.40;70.50;;;;;;5049514;28;20501;-60
2022/08/29 10:45:49;;;;;;;6.70;6.20;;;27.40;70.90;;;;;;5038241;28;20486;-59
2022/08/29 10:48:50;;;;;;;7.20;6.50;;;27.50;70.90;;;;;;5042761;28;20507;-60
2022/08/29 10:51:29;;;;;;;7.23;6.53;;;27.60;70.70;;;;;;5021484;28;20450;-59
2022/08/29 10:54:22;;;;;;;6.50;5.80;;;27.50;71.70;;;;;;5045346;28;20947;-59
2022/08/29 10:56:49;;;;;;;6.93;6.43;;;27.70;70.40;;;;;;5031567;28;20537;-60
2022/08/29 10:59:29;;;;;;;6.40;5.60;;;27.70;69.60;;;;;;5052904;28;20467;-60
2022/08/29 11:02:07;;;;;;;7.03;6.43;;;27.80;70.50;;;;;;5036256;28;20436;-60
2022/08/29 11:04:41;;;;;;;6.90;6.33;;;27.80;68.20;;;;;;5046914;28;20448;-61
2022/08/29 11:07:16;;;;;;;8.00;6.53;;;28.30;67.50;;;;;;5043065;28;20450;-60
2022/08/29 11:09:53;;;;;;;6.47;5.97;;;28.80;65.40;;;;;;5046473;28;20474;-60
2022/08/29 11:12:46;;;;;;;7.63;5.60;;;29.00;65.60;;;;;;5040440;28;20463;-60
2022/08/29 11:15:20;;;;;;;7.93;5.70;;;29.30;64.30;;;;;;5046571;28;20485;-60
2022/08/29 11:18:04;;;;;;;6.93;6.23;;;29.30;62.90;;;;;;5040548;28;20446;-60
2022/08/29 11:20:37;;;;;;;7.07;5.60;;;29.20;63.60;;;;;;5047283;28;20528;-58
2022/08/29 11:23:32;;;;;;;5.20;4.70;;;28.60;63.10;;;;;;5034809;28;20438;-60
2022/08/29 11:26:10;;;;;;;6.20;5.63;;;28.40;62.70;;;;;;5027525;28;20587;-59
2022/08/29 11:29:10;;;;;;;6.60;6.00;;;28.10;64.40;;;;;;5050564;28;20464;-59
2022/08/29 11:32:08;;;;;;;8.83;8.10;;;27.80;65.80;;;;;;5049136;28;20437;-60
2022/08/29 11:35:19;;;;;;;6.37;5.37;;;27.90;68.10;;;;;;4985209;28;20454;-60
2022/08/29 11:38:21;;;;;;;6.60;6.00;;;27.80;67.30;;;;;;4989458;28;20460;-59
2022/08/29 11:40:56;;;;;;;7.00;6.00;;;27.40;68.70;;;;;;5047369;28;20456;-60
2022/08/29 11:43:27;;;;;;;6.87;5.47;;;27.50;68.10;;;;;;5045711;28;20443;-60
2022/08/29 11:45:58;;;;;;;6.20;5.60;;;27.60;68.10;;;;;;5047684;28;21224;-60
2022/08/29 11:48:40;;;;;;;6.77;5.90;;;27.70;67.80;;;;;;5031208;28;20868;-61
2022/08/29 11:51:33;;;;;;;6.47;5.87;;;28.00;67.50;;;;;;5046984;28;20492;-60
2022/08/29 11:54:23;;;;;;;6.90;5.87;;;28.10;65.20;;;;;;5039108;28;20514;-61
2022/08/29 11:56:50;;;;;;;5.70;5.20;;;28.10;65.40;;;;;;5049220;28;20875;-63
2022/08/29 11:59:48;;;;;;;7.40;6.70;;;28.00;65.40;;;;;;5054534;28;20447;-62
2022/08/29 12:02:38;;;;;;;5.83;5.23;;;28.30;64.50;;;;;;5037567;28;20440;-63
2022/08/29 12:05:05;;;;;;;5.43;4.97;;;28.70;63.60;;;;;;5032736;28;20513;-61
2022/08/29 12:07:54;;;;;;;6.57;5.90;;;28.50;61.60;;;;;;5048114;28;20822;-61
2022/08/29 12:10:22;;;;;;;6.10;5.60;;;29.10;61.00;;;;;;5049885;28;21086;-62
2022/08/29 12:13:35;;;;;;;6.07;5.47;;;28.90;61.40;;;;;;5046276;28;20440;-62
2022/08/29 12:16:08;;;;;;;5.80;5.30;;;28.90;61.90;;;;;;4973290;28;20441;-62
2022/08/29 12:18:37;;;;;;;5.93;5.43;;;28.60;62.30;;;;;;5047327;28;20443;-61
2022/08/29 12:21:33;;;;;;;5.90;5.40;;;28.40;63.10;;;;;;5028271;28;21091;-61
2022/08/29 12:23:59;;;;;;;5.90;5.50;;;28.20;63.80;;;;;;5047472;28;20441;-61
2022/08/29 12:26:43;;;;;;;7.00;6.40;;;28.20;64.90;;;;;;5048946;28;21153;-61
2022/08/29 12:29:23;;;;;;;5.53;5.13;;;28.10;64.10;;;;;;5040886;28;20472;-62
2022/08/29 12:32:34;;;;;;;6.90;5.37;;;28.10;62.40;;;;;;5042350;28;21227;-61
2022/08/29 12:35:09;;;;;;;5.67;5.27;;;27.80;63.40;;;;;;5043562;28;20444;-62
2022/08/29 12:37:53;;;;;;;6.03;5.50;;;27.90;65.20;;;;;;5040055;28;20496;-62
2022/08/29 12:40:38;;;;;;;5.80;5.40;;;27.90;65.20;;;;;;5044917;28;20804;-62
2022/08/29 12:43:32;;;;;;;7.37;5.73;;;28.10;65.50;;;;;;5044909;28;20448;-62
2022/08/29 12:45:59;;;;;;;6.20;5.70;;;28.00;63.70;;;;;;5046320;28;20520;-61
2022/08/29 12:48:34;;;;;;;5.67;5.17;;;27.80;64.30;;;;;;5049400;28;20483;-60
2022/08/29 12:51:01;;;;;;;5.73;5.33;;;27.90;63.70;;;;;;5044973;28;20455;-60
2022/08/29 12:53:33;;;;;;;6.20;5.70;;;27.90;62.30;;;;;;5049260;28;20444;-61
2022/08/29 12:56:18;;;;;;;6.20;5.73;;;27.90;62.70;;;;;;5035572;28;20888;-62
2022/08/29 12:58:50;;;;;;;6.20;5.70;;;28.00;63.70;;;;;;5046570;28;20436;-61
2022/08/29 13:01:20;;;;;;;6.13;4.93;;;28.10;63.50;;;;;;5041595;28;20474;-60
2022/08/29 13:03:58;;;;;;;5.87;5.37;;;28.00;62.00;;;;;;5047926;28;20450;-60
2022/08/29 13:06:25;;;;;;;7.10;6.50;;;28.10;63.00;;;;;;5050576;28;20432;-59
2022/08/29 13:08:50;;;;;;;5.97;5.37;;;28.20;62.40;;;;;;5041539;28;20826;-59